M I D A S
Marine Information and Data Acquisition System
Tripno 1872 of the Zeeleeuw from 2010-04-30 10:37:57 to 2010-04-30 13:23:04
Back to CruiseResearch ActivitiesStationsMapUnderway DataData graphs

EquipmentUnitsComment
TimeDGPSUTC
LatitudeDGPSDM.mWGS84
LongitudeDGPSDM.mWGS84
TemperatureSBE03/SBE38deg celciusITS90
ConductivitySBE21S/mITS90
SalinitySBE21 Practical Salinity Units
ChlorophylAChelsea fluorimeterg/lCalibrated in Aceton
Missing or incorrect values are displayed as -999
Sea surface data collected by the RV Zeeleeuw from 2010-04-30 10:41:07 to 2010-04-30 13:44:27
Time Latitude Longitude Temperature Conductivity Salinity ChlorophylA
2010-04-30 10:42:14 51°13.677 2°55.91 18.3936 1.694434 13.012025 -0.617504
2010-04-30 10:43:14 51°13.695 2°55.812 18.4311 1.694749 13.011269 -0.687152
2010-04-30 10:44:14 51°13.704 2°55.76 12.9088 3.345527 26.198992 12.267396
2010-04-30 10:45:14 51°13.697 2°55.743 12.8515 2.998563 24.60441 14.8792
2010-04-30 10:46:14 51°13.731 2°55.723 12.7983 2.916721 23.96136 14.53096
2010-04-30 10:47:14 51°13.851 2°55.623 13.0002 2.918617 23.965285 13.486238
2010-04-30 10:48:14 51°14.003 2°55.517 12.7896 2.729487 22.152639 10.874434
2010-04-30 10:49:14 51°14.157 2°55.397 12.8337 2.96886 24.478434 11.710211
2010-04-30 10:50:12 51°14.312 2°55.254 12.6317 2.974021 24.522842 11.257499
2010-04-30 10:51:11 51°14.48 2°55.087 12.4068 3.131627 26.098396 11.884332
2010-04-30 10:52:11 51°14.646 2°54.867 12.3421 3.209182 26.937565 12.093276
2010-04-30 10:53:11 51°14.837 2°54.687 11.9857 3.375389 28.596719 11.083378
2010-04-30 10:54:11 51°15.029 2°54.51 11.9437 3.479331 29.792136 9.377
2010-04-30 10:55:11 51°15.213 2°54.318 11.9196 3.504845 30.059269 6.347307
2010-04-30 10:56:11 51°15.387 2°54.1 11.8124 3.530464 30.339009 5.33741
2010-04-30 10:57:11 51°15.56 2°53.878 11.7418 3.539322 30.524636 7.600973
2010-04-30 10:58:11 51°15.726 2°53.643 11.7819 3.533629 30.494677 7.705445
2010-04-30 10:59:11 51°15.887 2°53.397 11.7292 3.534051 30.477398 6.591076
2010-04-30 11:00:11 51°16.068 2°53.2 11.6048 3.53131 30.523579 9.55112
2010-04-30 11:01:11 51°16.264 2°53.045 11.6136 3.533842 30.625277 10.177953
2010-04-30 11:02:11 51°16.465 2°52.909 11.6309 3.523509 30.510949 8.227806
2010-04-30 11:03:11 51°16.666 2°52.773 11.5851 3.515286 30.435161 7.91439
2010-04-30 11:04:11 51°16.864 2°52.632 11.5872 3.51381 30.450152 7.252733
2010-04-30 11:05:11 51°17.061 2°52.49 11.5661 3.506747 30.384166 6.765196
2010-04-30 11:06:11 51°17.259 2°52.346 11.5435 3.511386 30.447597 6.660724
2010-04-30 11:07:11 51°17.457 2°52.198 11.5697 3.512545 30.461357 5.68565
2010-04-30 11:08:11 51°17.642 2°52.015 11.5828 3.503795 30.364844 5.198113
2010-04-30 11:09:11 51°17.823 2°51.822 11.5974 3.503057 30.346748 4.849873
2010-04-30 11:10:11 51°18.002 2°51.624 11.6355 3.503267 30.344248 4.22304
2010-04-30 11:11:11 51°18.172 2°51.406 11.5704 3.50527 30.338938 4.39716
2010-04-30 11:12:11 51°18.321 2°51.207 11.5527 3.51244 30.455795 4.501632
2010-04-30 11:13:11 51°18.402 2°51.095 11.5747 3.502741 30.368302 5.232937
2010-04-30 11:14:11 51°18.448 2°51.031 11.5743 3.498629 30.318399 6.521427
2010-04-30 11:15:11 51°18.464 2°51.005 11.5547 3.491144 30.248366 8.993935
2010-04-30 11:16:11 51°18.467 2°50.999 11.555 3.487243 30.208293 8.784991
2010-04-30 11:17:11 51°18.467 2°51.003 11.5557 3.490406 30.229025 8.471574
2010-04-30 11:18:11 51°18.463 2°51.016 11.5392 3.490195 30.243759 8.332278
2010-04-30 11:19:11 51°18.457 2°51.033 11.5544 3.490195 30.24634 8.26263
2010-04-30 11:20:11 51°18.449 2°51.051 11.5783 3.490827 30.238878 8.053686
2010-04-30 11:21:11 51°18.441 2°51.07 11.5819 3.491987 30.239066 7.670621
2010-04-30 11:22:11 51°18.436 2°51.087 11.5673 3.490089 30.225986 7.775093
2010-04-30 11:23:11 51°18.431 2°51.104 11.5617 3.489457 30.222484 7.949214
2010-04-30 11:24:11 51°18.426 2°51.122 11.5674 3.488403 30.215573 7.809917
2010-04-30 11:25:11 51°18.423 2°51.141 11.5603 3.487981 30.210233 7.566149
2010-04-30 11:26:11 51°18.421 2°51.16 11.5619 3.487454 30.207099 7.600973
2010-04-30 11:27:11 51°18.418 2°51.182 11.5592 3.487454 30.208387 7.740269
2010-04-30 11:28:11 51°18.416 2°51.204 11.5539 3.487665 30.214923 7.531325
2010-04-30 11:29:11 51°18.412 2°51.227 11.5601 3.487665 30.218789 8.08851
2010-04-30 11:30:11 51°18.416 2°51.249 11.5573 3.488824 30.224781 7.879566
2010-04-30 11:31:11 51°18.46 2°51.265 11.5452 3.488086 30.226711 9.516296
2010-04-30 11:32:11 51°18.484 2°51.379 11.5274 3.487243 30.226983 10.804786
2010-04-30 11:33:11 51°18.415 2°51.455 11.541 3.485451 30.204592 11.396795
2010-04-30 11:34:11 51°18.315 2°51.475 11.5584 3.487559 30.222287 10.247601
2010-04-30 11:35:11 51°18.204 2°51.537 11.5668 3.488824 30.217694 8.854639
2010-04-30 11:36:11 51°18.093 2°51.607 11.566 3.495993 30.276917 6.416955
2010-04-30 11:37:11 51°17.986 2°51.633 11.5284 3.506641 30.390926 5.023993
2010-04-30 11:38:11 51°17.958 2°51.552 11.5359 3.510437 30.446259 4.327512
2010-04-30 11:39:11 51°17.975 2°51.547 11.5028 3.51107 30.460797 4.466808
2010-04-30 11:40:11 51°17.987 2°51.564 11.5113 3.510754 30.481823 4.57128
2010-04-30 11:41:11 51°17.995 2°51.593 11.514 3.510859 30.470472 4.083744
2010-04-30 11:42:11 51°17.999 2°51.628 11.5166 3.510648 30.468441 3.770327
2010-04-30 11:43:11 51°18.001 2°51.668 11.5117 3.50991 30.467187 3.909623
2010-04-30 11:44:11 51°18.001 2°51.708 11.5153 3.510754 30.47271 3.665855
2010-04-30 11:45:11 51°18.003 2°51.747 11.5232 3.510543 30.466125 3.352439
2010-04-30 11:46:11 51°18.004 2°51.785 11.5225 3.512019 30.476437 3.387263
2010-04-30 11:47:12 51°18.008 2°51.824 11.4485 3.511175 30.467664 3.317614
2010-04-30 11:48:11 51°18.027 2°51.843 11.504 3.513812 30.560254 3.735503
2010-04-30 11:49:11 51°18.044 2°51.817 11.5358 3.509699 30.469711 4.292688
2010-04-30 11:50:11 51°18.008 2°51.796 11.5428 3.508012 30.436556 4.780225
2010-04-30 11:51:11 51°17.879 2°51.872 11.4729 3.510015 30.455195 5.093641
2010-04-30 11:52:11 51°17.687 2°52.024 11.6089 3.514865 30.514278 4.57128
2010-04-30 11:53:11 51°17.505 2°52.223 11.5921 3.516129 30.441321 4.57128
2010-04-30 11:54:11 51°17.351 2°52.479 11.5771 3.516235 30.455302 4.501632
2010-04-30 11:55:11 51°17.189 2°52.722 11.5817 3.516341 30.471892 5.023993
2010-04-30 11:56:11 51°16.99 2°52.854 11.5815 3.517395 30.470344 5.372234
2010-04-30 11:57:11 51°16.83 2°53.1 11.5337 3.521612 30.528455 5.232937
2010-04-30 11:58:11 51°16.745 2°53.37 11.5751 3.524248 30.594909 5.755298
2010-04-30 11:59:11 51°16.671 2°53.408 11.6057 3.519187 30.488227 5.058817
2010-04-30 12:00:11 51°16.66 2°53.366 11.5888 3.52119 30.498395 5.023993
2010-04-30 12:01:11 51°16.679 2°53.38 11.5759 3.523088 30.531595 5.51153
2010-04-30 12:02:11 51°16.702 2°53.42 11.5886 3.523088 30.540705 5.581178
2010-04-30 12:03:11 51°16.727 2°53.456 11.5836 3.523826 30.533489 4.710577
2010-04-30 12:04:11 51°16.751 2°53.455 11.5578 3.52351 30.541508 5.198113
2010-04-30 12:05:11 51°16.702 2°53.433 11.5222 3.523932 30.565761 5.476706
2010-04-30 12:06:11 51°16.617 2°53.404 11.5451 3.526884 30.614428 5.790122
2010-04-30 12:07:11 51°16.619 2°53.33 11.5068 3.529942 30.632776 5.51153
2010-04-30 12:08:11 51°16.638 2°53.318 11.4808 3.531207 30.678349 5.999067
2010-04-30 12:09:11 51°16.656 2°53.332 11.4761 3.531945 30.69596 6.277659
2010-04-30 12:10:11 51°16.671 2°53.355 11.4839 3.532156 30.706526 6.208011
2010-04-30 12:11:11 51°16.684 2°53.384 11.4935 3.532051 30.696977 6.173187
2010-04-30 12:12:11 51°16.695 2°53.416 11.5017 3.532578 30.696159 6.242835
2010-04-30 12:13:11 51°16.704 2°53.448 11.5104 3.532894 30.691341 6.138363
2010-04-30 12:14:11 51°16.709 2°53.488 11.5028 3.532894 30.686098 6.033891
2010-04-30 12:15:11 51°16.711 2°53.538 11.5132 3.532367 30.684291 5.999067
2010-04-30 12:16:11 51°16.7 2°53.568 11.5086 3.533526 30.688921 5.824946
2010-04-30 12:17:11 51°16.704 2°53.569 11.5067 3.532999 30.685148 5.755298
2010-04-30 12:18:11 51°16.727 2°53.596 11.5109 3.532261 30.682619 5.720474
2010-04-30 12:19:11 51°16.752 2°53.628 11.5305 3.534264 30.692104 5.51153
2010-04-30 12:20:11 51°16.775 2°53.652 11.5305 3.534159 30.678643 5.33741
2010-04-30 12:21:11 51°16.797 2°53.669 11.5255 3.534264 30.682933 5.476706
2010-04-30 12:22:11 51°16.817 2°53.683 11.5116 3.534475 30.692827 5.407058
2010-04-30 12:23:11 51°16.838 2°53.697 11.5019 3.535319 30.710138 5.476706
2010-04-30 12:24:11 51°16.859 2°53.709 11.509 3.535319 30.713417 5.51153
2010-04-30 12:25:11 51°16.882 2°53.719 11.5127 3.535213 30.709777 5.407058
2010-04-30 12:26:11 51°16.899 2°53.733 11.5309 3.535635 30.703352 5.302586
2010-04-30 12:27:11 51°16.863 2°53.709 11.5316 3.531418 30.653536 5.058817
2010-04-30 12:28:11 51°16.74 2°53.64 11.5545 3.536267 30.697 4.640929
2010-04-30 12:29:11 51°16.64 2°53.577 11.5505 3.540063 30.70999 4.780225
2010-04-30 12:30:11 51°16.638 2°53.541 11.4989 3.552188 30.842582 4.536456
2010-04-30 12:31:11 51°16.654 2°53.544 11.4699 3.553981 30.904043 5.198113
2010-04-30 12:32:11 51°16.673 2°53.569 11.459 3.55493 30.932376 4.989169
2010-04-30 12:33:11 51°16.69 2°53.591 11.4471 3.555563 30.948417 5.198113
2010-04-30 12:34:11 51°16.698 2°53.607 11.4511 3.556828 30.963296 5.093641
2010-04-30 12:35:11 51°16.696 2°53.627 11.4491 3.557672 30.972776 4.884697
2010-04-30 12:36:11 51°16.697 2°53.642 11.4496 3.560202 30.998568 4.884697
2010-04-30 12:37:11 51°16.707 2°53.646 11.4481 3.561256 31.010755 4.815049
2010-04-30 12:38:11 51°16.724 2°53.65 11.4301 3.563049 31.029417 4.710577
2010-04-30 12:39:11 51°16.738 2°53.649 11.3643 3.566318 31.081653 4.57128
2010-04-30 12:40:11 51°16.753 2°53.644 11.2075 3.568638 31.16151 4.780225
2010-04-30 12:41:11 51°16.763 2°53.641 11.1527 3.566215 31.266197 6.486603
2010-04-30 12:42:11 51°16.762 2°53.652 11.1277 3.563685 31.276628 7.357205
2010-04-30 12:43:11 51°16.752 2°53.676 11.1175 3.562209 31.28115 8.227806
2010-04-30 12:44:11 51°16.75 2°53.693 11.1078 3.56126 31.282709 8.401926
2010-04-30 12:45:11 51°16.761 2°53.702 11.1017 3.559679 31.274039 8.784991
2010-04-30 12:46:11 51°16.782 2°53.703 11.0985 3.558835 31.271217 9.028759
2010-04-30 12:47:11 51°16.803 2°53.702 11.0836 3.561471 31.305066 8.889463
2010-04-30 12:48:11 51°16.814 2°53.702 11.0753 3.561155 31.312137 9.411824
2010-04-30 12:49:11 51°16.816 2°53.706 11.0684 3.561682 31.32203 8.541223
2010-04-30 12:50:11 51°16.816 2°53.709 11.0585 3.561999 31.331222 9.55112
2010-04-30 12:51:11 51°16.817 2°53.71 11.0566 3.561366 31.331146 9.864537
2010-04-30 12:52:11 51°16.818 2°53.712 11.06 3.56337 31.353437 9.377
2010-04-30 12:53:11 51°16.818 2°53.716 11.0465 3.563686 31.357208 9.655592
2010-04-30 12:54:11 51°16.818 2°53.719 11.0497 3.563264 31.359877 9.829713
2010-04-30 12:55:11 51°16.819 2°53.725 11.043 3.564002 31.363695 9.55112
2010-04-30 12:56:11 51°16.813 2°53.734 11.1994 3.563053 31.359853 9.794888
2010-04-30 12:57:11 51°16.789 2°53.74 11.2523 3.567375 31.269401 6.939316
2010-04-30 12:58:11 51°16.751 2°53.678 11.2865 3.568217 31.230492 5.964243
2010-04-30 12:59:11 51°16.675 2°53.689 11.2988 3.564632 31.182224 5.267761
2010-04-30 13:00:11 51°16.601 2°53.859 11.2329 3.567163 31.184007 5.824946
2010-04-30 13:01:11 51°16.589 2°54.196 11.0619 3.570538 31.350893 9.411824
2010-04-30 13:02:11 51°16.544 2°54.514 11.1396 3.561366 31.316907 11.153027
2010-04-30 13:03:11 51°16.471 2°54.611 11.2234 3.560311 31.232952 9.690416
2010-04-30 13:04:11 51°16.443 2°54.532 11.2252 3.558939 31.169152 10.143129
2010-04-30 13:05:11 51°16.359 2°54.414 11.2184 3.558939 31.171166 10.143129
2010-04-30 13:06:11 51°16.302 2°54.322 11.2222 3.560521 31.187895 11.640563
2010-04-30 13:07:11 51°16.294 2°54.302 11.1993 3.559361 31.180643 11.222675
2010-04-30 13:08:11 51°16.297 2°54.31 11.2126 3.55778 31.178021 11.292323
2010-04-30 13:09:11 51°16.302 2°54.321 11.2002 3.562735 31.221545 11.01373
2010-04-30 13:10:11 51°16.306 2°54.328 11.195 3.560943 31.210827 10.978906
2010-04-30 13:11:11 51°16.307 2°54.336 11.1901 3.560416 31.212424 11.431619
2010-04-30 13:12:11 51°16.302 2°54.352 11.1913 3.561787 31.226444 11.745035
2010-04-30 13:13:11 51°16.295 2°54.373 11.2056 3.562419 31.232604 11.536091
2010-04-30 13:14:11 51°16.291 2°54.392 11.2014 3.56263 31.224557 11.361971
2010-04-30 13:15:11 51°16.287 2°54.4 11.2115 3.562419 31.220485 11.118203
2010-04-30 13:16:11 51°16.286 2°54.398 11.3465 3.562946 31.212833 10.735138
2010-04-30 13:17:11 51°16.287 2°54.392 11.4325 3.56558 31.095155 10.003833
2010-04-30 13:18:11 51°16.293 2°54.382 11.4448 3.569164 31.10255 11.083378
2010-04-30 13:19:11 51°16.3 2°54.377 11.4967 3.567055 31.063518 11.536091
2010-04-30 13:20:11 51°16.299 2°54.378 11.5135 3.566317 31.006627 11.675387
2010-04-30 13:21:11 51°16.29 2°54.391 11.5057 3.570007 31.039611 12.371868
2010-04-30 13:22:11 51°16.254 2°54.38 11.4778 3.569902 31.04655 11.570915
2010-04-30 13:23:11 51°16.192 2°54.294 11.5052 3.566317 31.016564 12.476341
2010-04-30 13:24:11 51°16.109 2°54.151 11.4385 3.566211 31.005609 13.277294
2010-04-30 13:25:11 51°16.02 2°54.001 11.405 3.566529 31.089687 13.277294
2010-04-30 13:26:11 51°15.915 2°53.877 11.5102 3.564631 31.068651 14.008599
2010-04-30 13:27:11 51°15.782 2°53.799 11.5331 3.564946 30.982143 14.739904
2010-04-30 13:28:11 51°15.603 2°53.773 11.7965 3.563891 30.945543 16.690051
2010-04-30 13:29:11 51°15.404 2°53.775 11.8178 3.5583 30.709015 16.306987
2010-04-30 13:30:11 51°15.211 2°53.907 12.1405 1.85136 14.97484 -0.478207
2010-04-30 13:31:11 51°15.081 2°54.2 12.2869 1.833921 14.821285 -0.478207
2010-04-30 13:32:11 51°14.947 2°54.5 12.4211 1.84243 14.89682 -0.478207
2010-04-30 13:33:11 51°14.784 2°54.749 12.5519 1.830244 14.787372 -0.513031
2010-04-30 13:34:11 51°14.604 2°54.953 12.6826 1.834341 14.819048 -0.478207
2010-04-30 13:35:11 51°14.418 2°55.125 12.7927 1.835497 14.82328 -0.513031
2010-04-30 13:36:11 51°14.262 2°55.297 12.8957 1.839489 14.853386 -0.513031
2010-04-30 13:37:11 51°14.153 2°55.408 13.0195 0.996608 6.305437 -0.513031
2010-04-30 13:38:11 51°14.047 2°55.489 13.1587 0.160509 0.890281 -0.547855
2010-04-30 13:39:14 51°13.929 2°55.568 13.2756 0.087325 0.477737 -0.547855
2010-04-30 13:40:14 51°13.818 2°55.636 13.4879 0.073902 0.405876 -0.513031
2010-04-30 13:41:14 51°13.745 2°55.721 13.643 0.070572 0.387407 -0.513031
2010-04-30 13:42:14 51°13.702 2°55.816 13.7361 0.069116 0.383345 -0.513031
2010-04-30 13:43:15 51°13.673 2°55.912 13.8508 0.068076 0.382067 -0.478207
2010-04-30 13:44:14 51°13.663 2°55.955 13.9781 0.067451 0.381153 -0.513031